Time;durP1;ratioP1;P1;durP2;ratioP2;P2;SDS_P1;SDS_P2;PMS_P1;PMS_P2;Temp;Humidity;BMP_temperature;BMP_pressure;BME280_temperature;BME280_humidity;BME280_pressure;Samples;Min_cycle;Max_cycle;Signal;HPM_P1;HPM_P2
2023/11/03 00:00:56;;;;;;;;;81.25;73.75;;;;;14.60;100.00;97988.28;2054794;28;46377;-58
2023/11/03 00:01:57;;;;;;;;;185.67;165.33;;;;;14.61;100.00;97984.63;2059946;28;46309;-54
2023/11/03 00:02:59;;;;;;;;;82.75;75.75;;;;;14.62;100.00;97986.34;2062767;28;46250;-59
2023/11/03 00:03:59;;;;;;;;;56.00;44.40;;;;;14.60;100.00;97988.28;2062485;28;47363;-55
2023/11/03 00:05:02;;;;;;;;;73.00;59.50;;;;;14.58;100.00;97987.56;2062772;28;46490;-56
2023/11/03 00:06:03;;;;;;;;;35.40;30.20;;;;;14.57;100.00;97986.72;2062437;28;46587;-55
2023/11/03 00:07:04;;;;;;;;;13.00;10.33;;;;;14.56;100.00;97987.69;2062980;28;46280;-57
2023/11/03 00:08:04;;;;;;;;;61.00;48.00;;;;;14.55;100.00;97985.16;2061101;28;46605;-56
2023/11/03 00:09:07;;;;;;;;;62.50;49.00;;;;;14.55;100.00;97985.16;2054267;28;46715;-55
2023/11/03 00:10:11;;;;;;;;;70.80;54.60;;;;;14.54;100.00;97991.47;2054162;28;46446;-56
2023/11/03 00:11:12;;;;;;;;;32.20;28.80;;;;;14.52;100.00;97982.72;2054043;28;47257;-54
2023/11/03 00:12:13;;;;;;;;;52.25;40.50;;;;;14.51;100.00;97989.06;2054785;28;46254;-56
2023/11/03 00:13:15;;;;;;;;;91.75;82.75;;;;;14.51;100.00;97994.38;2054584;28;46636;-56
2023/11/03 00:14:16;;;;;;;;;25.60;22.40;;;;;14.48;100.00;97994.59;2070202;28;46229;-59
2023/11/03 00:15:17;;;;;;;;;29.20;28.80;;;;;14.41;100.00;97992.41;2069797;28;46464;-54
2023/11/03 00:16:17;;;;;;;;;27.00;22.50;;;;;14.41;100.00;97997.75;2054944;28;46348;-59
2023/11/03 00:17:17;;;;;;;;;34.50;31.00;;;;;14.41;100.00;97997.75;2054522;28;46265;-56
2023/11/03 00:18:19;;;;;;;;;19.75;19.00;;;;;14.40;100.00;97996.06;2054373;28;46403;-56
2023/11/03 00:19:20;;;;;;;;;95.75;86.75;;;;;14.40;100.00;97996.06;2054862;28;47017;-57
2023/11/03 00:20:20;;;;;;;;;33.50;31.50;;;;;14.40;100.00;97993.38;2054591;28;46218;-55
2023/11/03 00:21:21;;;;;;;;;32.75;30.25;;;;;14.40;100.00;97993.38;2054825;28;46616;-58
2023/11/03 00:22:23;;;;;;;;;9.67;9.00;;;;;14.41;100.00;97997.75;2054895;28;46432;-56
2023/11/03 00:23:24;;;;;;;;;9.25;9.25;;;;;14.40;100.00;97988.06;2054340;28;46166;-57
2023/11/03 00:24:24;;;;;;;;;51.50;42.25;;;;;14.44;100.00;97991.34;2056954;28;46191;-58
2023/11/03 00:25:24;;;;;;;;;68.25;54.50;;;;;14.45;100.00;97994.88;2062153;28;46909;-57
2023/11/03 00:26:25;;;;;;;;;20.25;19.00;;;;;14.44;100.00;97996.69;2084999;28;46725;-56
2023/11/03 00:27:26;;;;;;;;;15.00;14.00;;;;;14.45;100.00;97987.72;2087398;28;46333;-53
2023/11/03 00:28:27;;;;;;;;;9.25;7.75;;;;;14.44;100.00;97988.69;2053901;28;46259;-56
2023/11/03 00:29:27;;;;;;;;;20.75;19.75;;;;;14.45;100.00;97998.38;2059114;28;46957;-56
2023/11/03 00:30:27;;;;;;;;;13.33;13.33;;;;;14.45;100.00;97992.19;2061900;28;46516;-56
2023/11/03 00:31:28;;;;;;;;;15.50;14.50;;;;;14.43;100.00;97997.63;2061325;28;46840;-57
2023/11/03 00:32:29;;;;;;;;;22.80;21.20;;;;;14.43;100.00;97997.63;2061634;28;45586;-55
2023/11/03 00:33:30;;;;;;;;;28.75;26.50;;;;;14.42;100.00;97993.25;2062087;28;46694;-60
2023/11/03 00:34:30;;;;;;;;;12.25;11.75;;;;;14.40;100.00;97993.38;2062165;28;47004;-57
2023/11/03 00:35:31;;;;;;;;;7.00;6.67;;;;;14.41;100.00;97996.91;2062852;28;46423;-56
2023/11/03 00:36:31;;;;;;;;;9.00;9.00;;;;;14.40;100.00;98003.22;2062806;28;46797;-58
2023/11/03 00:37:32;;;;;;;;;6.00;4.33;;;;;14.40;100.00;98005.88;2062775;28;46745;-58
2023/11/03 00:38:32;;;;;;;;;2.00;2.00;;;;;14.41;100.00;98003.09;2062738;28;46484;-58
2023/11/03 00:39:32;;;;;;;;;0.00;0.00;;;;;14.39;100.00;97997.03;2062822;28;46382;-57
2023/11/03 00:40:33;;;;;;;;;0.00;0.00;;;;;14.40;100.00;98006.72;2062854;28;46246;-55
2023/11/03 00:41:34;;;;;;;;;1.00;0.00;;;;;14.40;100.00;98005.88;2063158;28;46662;-55
2023/11/03 00:42:34;;;;;;;;;1.00;1.00;;;;;14.40;100.00;98009.41;2063182;28;45665;-58
2023/11/03 00:43:35;;;;;;;;;1.00;1.00;;;;;14.42;100.00;98009.28;2062768;28;46446;-56
2023/11/03 00:44:35;;;;;;;;;0.00;0.00;;;;;14.41;100.00;98008.44;2062581;28;46271;-56
2023/11/03 00:45:36;;;;;;;;;2.00;0.00;;;;;14.43;100.00;98014.47;2062857;28;46513;-57
2023/11/03 00:46:38;;;;;;;;;0.00;0.00;;;;;14.42;100.00;98004.78;2062907;28;45511;-59
2023/11/03 00:47:38;;;;;;;;;1.25;0.00;;;;;14.42;100.00;98015.47;2062587;28;46466;-59
2023/11/03 00:48:42;;;;;;;;;1.00;1.00;;;;;14.42;100.00;98014.59;2062908;28;46809;-57
2023/11/03 00:49:42;;;;;;;;;0.00;0.00;;;;;14.41;100.00;98023.59;2062784;28;45823;-58
2023/11/03 00:50:43;;;;;;;;;1.00;1.00;;;;;14.41;100.00;98020.91;2062857;28;46205;-58
2023/11/03 00:51:43;;;;;;;;;0.00;0.00;;;;;14.39;100.00;98017.53;2062490;28;46279;-55
2023/11/03 00:52:43;;;;;;;;;0.00;0.00;;;;;14.38;100.00;98024.69;2062442;28;46296;-55
2023/11/03 00:53:45;;;;;;;;;0.00;0.00;;;;;14.39;100.00;98018.38;2062836;28;46379;-54
2023/11/03 00:54:45;;;;;;;;;0.00;0.00;;;;;14.38;100.00;98019.34;2062871;28;46566;-57
2023/11/03 00:55:45;;;;;;;;;0.00;0.00;;;;;14.38;100.00;98014.00;2062901;28;46375;-55
2023/11/03 00:56:46;;;;;;;;;1.25;1.25;;;;;14.38;100.00;98019.34;2091561;28;46554;-58
2023/11/03 00:57:47;;;;;;;;;0.00;0.00;;;;;14.36;100.00;98018.63;2086566;28;46120;-58
2023/11/03 00:58:48;;;;;;;;;0.00;0.00;;;;;14.36;100.00;98021.31;2060945;28;46397;-56
2023/11/03 00:59:49;;;;;;;;;2.00;0.00;;;;;14.35;100.00;98021.41;2061073;28;46752;-57
2023/11/03 01:00:49;;;;;;;;;0.00;0.00;;;;;14.36;100.00;98023.97;2054434;28;46625;-58
2023/11/03 01:01:50;;;;;;;;;2.00;2.00;;;;;14.35;100.00;98022.25;2054709;28;46690;-55
2023/11/03 01:02:50;;;;;;;;;0.00;0.00;;;;;14.35;100.00;98019.56;2054874;28;46478;-56
2023/11/03 01:03:52;;;;;;;;;0.67;0.67;;;;;14.36;100.00;98023.13;2054323;28;46598;-61
2023/11/03 01:04:53;;;;;;;;;0.00;0.00;;;;;14.34;100.00;98027.69;2054864;28;46597;-58
2023/11/03 01:05:53;;;;;;;;;2.33;1.00;;;;;14.33;100.00;98020.66;2054826;28;46190;-58
2023/11/03 01:06:55;;;;;;;;;1.00;1.00;;;;;14.33;100.00;98034.00;2061210;28;46378;-55
2023/11/03 01:07:55;;;;;;;;;0.25;0.00;;;;;14.33;100.00;98026.00;2062430;28;46809;-57
2023/11/03 01:08:55;;;;;;;;;1.00;1.00;;;;;14.32;100.00;98024.31;2062709;28;46545;-57
2023/11/03 01:09:56;;;;;;;;;2.00;1.00;;;;;14.32;100.00;98026.97;2062780;28;46844;-56
2023/11/03 01:10:56;;;;;;;;;1.00;1.00;;;;;14.32;100.00;98019.81;2062920;28;45474;-56
2023/11/03 01:11:56;;;;;;;;;0.00;0.00;;;;;14.32;100.00;98024.31;2062716;28;46530;-57
2023/11/03 01:12:56;;;;;;;;;0.00;0.00;;;;;14.33;100.00;98032.19;2062617;28;46305;-58
2023/11/03 01:13:57;;;;;;;;;0.33;0.33;;;;;14.33;100.00;98029.53;2062958;28;46822;-55
2023/11/03 01:14:58;;;;;;;;;0.00;0.00;;;;;14.33;100.00;98023.34;2062506;28;46198;-58
2023/11/03 01:15:59;;;;;;;;;0.00;0.00;;;;;14.31;100.00;98020.81;2062746;28;46472;-59
2023/11/03 01:17:00;;;;;;;;;0.00;0.00;;;;;14.30;100.00;98035.13;2061927;28;46370;-59
2023/11/03 01:18:00;;;;;;;;;1.00;1.00;;;;;14.28;100.00;98033.53;2061583;28;47098;-55
2023/11/03 01:19:04;;;;;;;;;0.00;0.00;;;;;14.31;100.00;98030.63;2062703;28;46460;-59
2023/11/03 01:20:12;;;;;;;;;1.50;0.00;;;;;14.29;100.00;98032.56;2062553;28;46838;-57
2023/11/03 01:21:15;;;;;;;;;1.00;1.00;;;;;14.28;100.00;98037.06;2062245;28;46098;-56
2023/11/03 01:22:19;;;;;;;;;1.00;0.00;;;;;14.28;100.00;98039.72;2062942;28;46601;-55
2023/11/03 01:23:19;;;;;;;;;1.00;0.00;;;;;14.28;100.00;98023.72;2059034;28;46431;-57
2023/11/03 01:24:21;;;;;;;;;0.00;0.00;;;;;14.27;100.00;98037.19;2062632;28;46586;-59
2023/11/03 01:25:21;;;;;;;;;0.00;0.00;;;;;14.24;100.00;98035.63;2062380;28;46872;-56
2023/11/03 01:26:25;;;;;;;;;1.00;1.00;;;;;14.24;100.00;98032.94;2062087;28;46414;-56
2023/11/03 01:27:25;;;;;;;;;0.00;0.00;;;;;14.26;100.00;98038.16;2054213;28;46831;-56
2023/11/03 01:28:25;;;;;;;;;0.00;0.00;;;;;14.24;100.00;98035.63;2062007;28;46265;-58
2023/11/03 01:29:25;;;;;;;;;0.00;0.00;;;;;14.25;100.00;98031.13;2062717;28;46308;-56
2023/11/03 01:30:27;;;;;;;;;0.33;0.33;;;;;14.24;100.00;98035.63;2062640;28;46501;-55
2023/11/03 01:31:27;;;;;;;;;0.00;0.00;;;;;14.24;100.00;98034.75;2062642;28;46614;-58
2023/11/03 01:32:28;;;;;;;;;0.67;0.00;;;;;14.24;100.00;98035.63;2062603;28;46344;-58
2023/11/03 01:33:28;;;;;;;;;0.00;0.00;;;;;14.21;100.00;98030.50;2062394;28;46672;-58
2023/11/03 01:34:28;;;;;;;;;0.67;0.67;;;;;14.21;100.00;98033.16;2062534;28;46225;-60
2023/11/03 01:35:29;;;;;;;;;0.00;0.00;;;;;14.20;100.00;98027.97;2062618;28;47634;-56
2023/11/03 01:36:29;;;;;;;;;1.00;1.00;;;;;14.20;100.00;98026.13;2062885;28;46951;-57
2023/11/03 01:37:30;;;;;;;;;0.00;0.00;;;;;14.20;100.00;98030.63;2062249;28;46904;-59
2023/11/03 01:38:31;;;;;;;;;0.00;0.00;;;;;14.20;100.00;98041.28;2062359;28;46250;-57
2023/11/03 01:39:31;;;;;;;;;1.00;0.00;;;;;14.19;100.00;98031.59;2062654;28;45867;-52
2023/11/03 01:40:31;;;;;;;;;1.00;1.00;;;;;14.18;100.00;98037.91;2061352;28;46293;-55
2023/11/03 01:41:32;;;;;;;;;2.67;1.00;;;;;14.18;100.00;98032.56;2054179;28;46620;-54
2023/11/03 01:42:32;;;;;;;;;0.00;0.00;;;;;14.18;100.00;98038.75;2062017;28;46429;-59
2023/11/03 01:43:33;;;;;;;;;0.00;0.00;;;;;14.17;100.00;98034.38;2062185;28;45332;-57
2023/11/03 01:44:34;;;;;;;;;0.00;0.00;;;;;14.16;100.00;98035.34;2062454;28;46597;-56
2023/11/03 01:45:34;;;;;;;;;0.00;0.00;;;;;14.17;100.00;98038.88;2062098;28;46419;-58
2023/11/03 01:46:37;;;;;;;;;0.75;0.00;;;;;14.18;100.00;98043.25;2061846;28;46277;-57
2023/11/03 01:47:37;;;;;;;;;0.00;0.00;;;;;14.18;100.00;98030.75;2061977;28;46744;-58
2023/11/03 01:48:38;;;;;;;;;0.00;0.00;;;;;14.18;100.00;98041.41;2062311;28;46273;-56
2023/11/03 01:49:38;;;;;;;;;0.00;0.00;;;;;14.18;100.00;98038.75;2062464;28;46482;-58
2023/11/03 01:50:40;;;;;;;;;0.33;0.00;;;;;14.18;100.00;98032.56;2062263;28;46730;-59
2023/11/03 01:51:42;;;;;;;;;0.25;0.25;;;;;14.18;100.00;98030.75;2062102;28;46429;-57
2023/11/03 01:52:44;;;;;;;;;0.00;0.00;;;;;14.18;100.00;98036.09;2062536;28;46532;-57
2023/11/03 01:53:45;;;;;;;;;1.00;1.00;;;;;14.19;100.00;98036.94;2062334;28;46350;-57
2023/11/03 01:54:45;;;;;;;;;0.00;0.00;;;;;14.17;100.00;98038.88;2062650;28;47089;-55
2023/11/03 01:55:46;;;;;;;;;1.33;0.33;;;;;14.16;100.00;98040.69;2062994;28;46520;-59
2023/11/03 01:56:47;;;;;;;;;0.00;0.00;;;;;14.17;100.00;98044.22;2062304;28;46554;-57
2023/11/03 01:57:48;;;;;;;;;0.00;0.00;;;;;14.19;100.00;98044.94;2062061;28;45445;-56
2023/11/03 01:58:49;;;;;;;;;2.75;1.25;;;;;14.18;100.00;98046.75;2062142;28;46997;-57
2023/11/03 01:59:51;;;;;;;;;0.75;0.00;;;;;14.17;100.00;98041.53;2061851;28;46591;-59
2023/11/03 02:00:53;;;;;;;;;1.25;0.75;;;;;14.16;100.00;98039.84;2061749;28;46446;-52
2023/11/03 02:01:55;;;;;;;;;0.75;0.00;;;;;14.18;100.00;98040.56;2061440;28;47006;-56
2023/11/03 02:02:55;;;;;;;;;0.00;0.00;;;;;14.16;100.00;98045.19;2069944;28;46440;-58
2023/11/03 02:03:55;;;;;;;;;0.33;0.33;;;;;14.17;100.00;98036.22;2069691;28;46339;-56
2023/11/03 02:04:56;;;;;;;;;0.00;0.00;;;;;14.17;100.00;98039.72;2061943;28;46944;-58
2023/11/03 02:05:56;;;;;;;;;1.00;0.00;;;;;14.16;100.00;98045.19;2061683;28;46656;-57
2023/11/03 02:06:56;;;;;;;;;2.00;0.00;;;;;14.16;100.00;98037.19;2062235;28;46258;-58
2023/11/03 02:07:58;;;;;;;;;0.33;0.33;;;;;14.16;100.00;98042.50;2062402;28;46319;-57
2023/11/03 02:08:59;;;;;;;;;0.25;0.25;;;;;14.17;100.00;98038.88;2062707;28;47072;-55
2023/11/03 02:09:59;;;;;;;;;0.00;0.00;;;;;14.17;100.00;98042.38;2063216;28;45783;-57
2023/11/03 02:11:00;;;;;;;;;1.00;1.00;;;;;14.17;100.00;98046.88;2054780;28;46698;-56
2023/11/03 02:12:00;;;;;;;;;1.00;0.00;;;;;14.17;100.00;98042.38;2054897;28;46353;-59
2023/11/03 02:13:01;;;;;;;;;4.00;2.00;;;;;14.15;100.00;98041.66;2062475;28;45987;-58
2023/11/03 02:14:01;;;;;;;;;0.00;0.00;;;;;14.17;100.00;98053.06;2063658;28;46536;-57
2023/11/03 02:15:05;;;;;;;;;0.67;0.67;;;;;14.16;100.00;98032.69;2054982;28;46887;-58
2023/11/03 02:16:06;;;;;;;;;1.00;0.25;;;;;14.17;100.00;98044.22;2054339;28;46523;-58
2023/11/03 02:17:06;;;;;;;;;0.75;0.75;;;;;14.17;100.00;98044.22;2054801;28;46635;-57
2023/11/03 02:18:09;;;;;;;;;0.00;0.00;;;;;14.19;100.00;98042.25;2058998;28;46360;-54
2023/11/03 02:19:11;;;;;;;;;0.00;0.00;;;;;14.21;100.00;98041.16;2063641;28;46686;-52
2023/11/03 02:20:11;;;;;;;;;1.00;0.00;;;;;14.22;100.00;98050.88;2063325;28;46453;-58
2023/11/03 02:21:13;;;;;;;;;0.67;0.00;;;;;14.32;100.00;98041.16;2062962;28;46373;-56
2023/11/03 02:22:13;;;;;;;;;0.00;0.00;;;;;14.23;100.00;98044.59;2062803;28;46129;-56
2023/11/03 02:23:13;;;;;;;;;0.33;0.33;;;;;14.29;100.00;98051.25;2063331;28;46668;-58
2023/11/03 02:24:14;;;;;;;;;0.00;0.00;;;;;14.24;100.00;98051.63;2063158;28;46330;-55
2023/11/03 02:25:14;;;;;;;;;0.00;0.00;;;;;14.29;100.00;98045.91;2054764;28;46595;-56
2023/11/03 02:26:14;;;;;;;;;1.00;0.00;;;;;14.26;100.00;98048.81;2054823;28;46297;-57
2023/11/03 02:27:15;;;;;;;;;0.67;0.00;;;;;14.27;100.00;98043.38;2063073;28;46657;-54
2023/11/03 02:28:15;;;;;;;;;1.00;1.00;;;;;14.27;100.00;98046.03;2063037;28;46567;-57
2023/11/03 02:29:17;;;;;;;;;1.00;1.00;;;;;14.27;100.00;98038.03;2096446;28;46561;-56
2023/11/03 02:30:18;;;;;;;;;1.00;1.00;;;;;14.27;100.00;98040.69;2096287;28;45994;-56
2023/11/03 02:31:18;;;;;;;;;0.33;0.33;;;;;14.27;100.00;98037.19;2057362;28;46634;-58
2023/11/03 02:32:19;;;;;;;;;1.67;0.00;;;;;14.25;100.00;98042.66;2055285;28;46510;-57
2023/11/03 02:33:19;;;;;;;;;1.00;0.00;;;;;14.24;100.00;98043.63;2071152;28;46293;-57
2023/11/03 02:34:19;;;;;;;;;0.33;0.33;;;;;14.24;100.00;98038.28;2071059;28;46354;-57
2023/11/03 02:35:19;;;;;;;;;0.33;0.00;;;;;14.23;100.00;98049.03;2055350;28;46978;-53
2023/11/03 02:36:23;;;;;;;;;0.00;0.00;;;;;14.22;100.00;98037.53;2055431;28;46604;-55
2023/11/03 02:37:24;;;;;;;;;1.00;1.00;;;;;14.23;100.00;98041.03;2055506;28;46249;-57
2023/11/03 02:38:24;;;;;;;;;1.00;1.00;;;;;14.16;100.00;98056.69;2054919;28;46627;-59
2023/11/03 02:39:25;;;;;;;;;0.00;0.00;;;;;14.17;100.00;98047.72;2061159;28;46893;-59
2023/11/03 02:40:26;;;;;;;;;0.00;0.00;;;;;14.14;100.00;98047.97;2063489;28;46822;-51
2023/11/03 02:41:26;;;;;;;;;0.00;0.00;;;;;14.16;100.00;98045.19;2063481;28;46491;-59
2023/11/03 02:42:27;;;;;;;;;0.00;0.00;;;;;14.16;100.00;98047.84;2063132;28;46668;-58
2023/11/03 02:43:27;;;;;;;;;0.00;0.00;;;;;14.16;100.00;98038.03;2063614;28;46304;-59
2023/11/03 02:44:27;;;;;;;;;1.00;1.00;;;;;14.16;100.00;98042.50;2062273;28;46480;-58
2023/11/03 02:45:27;;;;;;;;;0.00;0.00;;;;;14.16;100.00;98046.03;2054827;28;46264;-57
2023/11/03 02:46:29;;;;;;;;;0.00;0.00;;;;;14.12;100.00;98042.75;2054650;28;46697;-53
2023/11/03 02:47:29;;;;;;;;;0.00;0.00;;;;;14.17;100.00;98039.72;2059909;28;46544;-58
2023/11/03 02:48:30;;;;;;;;;0.00;0.00;;;;;14.16;100.00;98035.34;2088231;28;46617;-58
2023/11/03 02:49:31;;;;;;;;;0.00;0.00;;;;;14.14;100.00;98037.31;2088394;28;46662;-55
2023/11/03 02:50:31;;;;;;;;;0.00;0.00;;;;;14.16;100.00;98043.38;2062029;28;46486;-58
2023/11/03 02:51:32;;;;;;;;;0.00;0.00;;;;;14.16;100.00;98034.50;2062743;28;46273;-56
2023/11/03 02:52:33;;;;;;;;;1.00;1.00;;;;;14.13;100.00;98038.28;2062296;28;46409;-56
2023/11/03 02:53:33;;;;;;;;;0.00;0.00;;;;;14.11;100.00;98029.56;2062229;28;46081;-57
2023/11/03 02:54:33;;;;;;;;;0.00;0.00;;;;;14.09;100.00;98042.97;2054113;28;46064;-58
2023/11/03 02:55:34;;;;;;;;;1.00;1.00;;;;;14.07;100.00;98039.59;2054166;28;46459;-55
2023/11/03 02:56:34;;;;;;;;;0.00;0.00;;;;;14.08;100.00;98043.94;2061951;28;46251;-56
2023/11/03 02:57:35;;;;;;;;;2.00;0.00;;;;;14.06;100.00;98048.56;2061200;28;46538;-59
2023/11/03 02:58:37;;;;;;;;;0.00;0.00;;;;;14.09;100.00;98047.47;2058261;28;46259;-55
2023/11/03 02:59:37;;;;;;;;;0.50;0.50;;;;;14.08;100.00;98051.09;2054053;28;46735;-59
2023/11/03 03:00:38;;;;;;;;;1.00;0.00;;;;;14.07;100.00;98046.75;2086915;28;48042;-57
2023/11/03 03:01:40;;;;;;;;;0.00;0.00;;;;;14.09;100.00;98064.31;2088283;28;46687;-62
2023/11/03 03:02:40;;;;;;;;;0.00;0.00;;;;;14.08;100.00;98059.09;2062090;28;46737;-57
2023/11/03 03:03:41;;;;;;;;;0.67;0.67;;;;;14.09;100.00;98056.31;2062556;28;46470;-55
2023/11/03 03:04:42;;;;;;;;;1.00;1.00;;;;;14.09;100.00;98058.13;2062382;28;45542;-56
2023/11/03 03:05:42;;;;;;;;;1.67;1.67;;;;;14.10;100.00;98055.38;2054324;28;46686;-55
2023/11/03 03:06:45;;;;;;;;;0.00;0.00;;;;;14.09;100.00;98066.97;2054466;28;46445;-58
2023/11/03 03:07:46;;;;;;;;;1.00;1.00;;;;;14.07;100.00;98060.06;2062508;28;46559;-61
2023/11/03 03:08:48;;;;;;;;;1.67;1.33;;;;;14.06;100.00;98053.91;2095787;28;46365;-58
2023/11/03 03:09:48;;;;;;;;;0.50;0.50;;;;;14.07;100.00;98066.25;2092963;28;46870;-58
2023/11/03 03:10:48;;;;;;;;;0.00;0.00;;;;;14.05;100.00;98070.03;2062386;28;46555;-59
2023/11/03 03:11:49;;;;;;;;;1.00;1.00;;;;;14.05;100.00;98062.03;2062090;28;46131;-56
2023/11/03 03:12:49;;;;;;;;;1.67;1.67;;;;;14.02;100.00;98060.44;2062850;28;46469;-57
2023/11/03 03:13:50;;;;;;;;;1.00;1.00;;;;;13.99;100.00;98059.84;2062557;28;46494;-57
2023/11/03 03:14:50;;;;;;;;;2.67;1.33;;;;;13.98;100.00;98064.34;2058496;28;46145;-57
2023/11/03 03:15:50;;;;;;;;;1.00;0.33;;;;;14.00;100.00;98065.06;2054176;28;45861;-59
2023/11/03 03:16:51;;;;;;;;;0.00;0.00;;;;;14.05;100.00;98067.34;2054015;28;46287;-57
2023/11/03 03:17:51;;;;;;;;;0.00;0.00;;;;;14.02;100.00;98063.13;2053723;28;46491;-57
2023/11/03 03:18:52;;;;;;;;;0.00;0.00;;;;;14.05;100.00;98067.34;2080935;28;46312;-55
2023/11/03 03:19:52;;;;;;;;;0.67;0.67;;;;;14.07;100.00;98065.41;2092852;28;46657;-57
2023/11/03 03:20:52;;;;;;;;;2.00;0.00;;;;;14.07;100.00;98070.75;2062849;28;46825;-57
2023/11/03 03:21:53;;;;;;;;;0.00;0.00;;;;;14.01;100.00;98072.09;2063193;28;46706;-53
2023/11/03 03:22:53;;;;;;;;;0.00;0.00;;;;;14.01;100.00;98074.75;2059685;28;46315;-56
2023/11/03 03:23:53;;;;;;;;;0.00;0.00;;;;;14.04;100.00;98069.16;2055147;28;46271;-56
2023/11/03 03:24:54;;;;;;;;;0.00;0.00;;;;;14.06;100.00;98063.72;2061661;28;46709;-56
2023/11/03 03:25:54;;;;;;;;;0.00;0.00;;;;;14.06;100.00;98069.91;2063428;28;45501;-57
2023/11/03 03:26:54;;;;;;;;;0.67;0.67;;;;;14.05;100.00;98065.53;2062646;28;46267;-59
2023/11/03 03:27:55;;;;;;;;;0.00;0.00;;;;;14.08;100.00;98067.09;2062621;28;46096;-54
2023/11/03 03:28:55;;;;;;;;;1.33;0.33;;;;;14.06;100.00;98061.91;2063231;28;46544;-57
2023/11/03 03:29:56;;;;;;;;;0.33;0.00;;;;;14.06;100.00;98063.72;2063302;28;46640;-56
2023/11/03 03:30:56;;;;;;;;;1.00;1.00;;;;;14.05;100.00;98068.19;2063398;28;46295;-59
2023/11/03 03:31:56;;;;;;;;;3.67;1.00;;;;;14.05;100.00;98062.88;2063320;28;46188;-57
2023/11/03 03:32:57;;;;;;;;;1.00;0.00;;;;;14.06;100.00;98059.22;2063311;28;46614;-57
2023/11/03 03:33:57;;;;;;;;;1.00;1.00;;;;;14.07;100.00;98062.75;2063115;28;46899;-57
2023/11/03 03:34:58;;;;;;;;;0.33;0.33;;;;;14.06;100.00;98064.56;2063059;28;46237;-60
2023/11/03 03:35:58;;;;;;;;;1.00;1.00;;;;;14.07;100.00;98060.94;2063498;28;45940;-57
2023/11/03 03:36:59;;;;;;;;;0.00;0.00;;;;;14.06;100.00;98061.91;2063223;28;46459;-58
2023/11/03 03:38:00;;;;;;;;;0.25;0.25;;;;;14.05;100.00;98059.34;2063353;28;46843;-57
2023/11/03 03:39:00;;;;;;;;;0.00;0.00;;;;;14.05;100.00;98065.53;2062894;28;46297;-57
2023/11/03 03:40:00;;;;;;;;;1.00;0.00;;;;;14.03;100.00;98066.63;2063201;28;46387;-58
2023/11/03 03:41:01;;;;;;;;;0.33;0.33;;;;;14.05;100.00;98068.19;2062837;28;46115;-54
2023/11/03 03:42:01;;;;;;;;;0.00;0.00;;;;;14.06;100.00;98072.56;2063165;28;46663;-58
2023/11/03 03:43:01;;;;;;;;;0.67;0.67;;;;;14.05;100.00;98062.88;2063127;28;46229;-57
2023/11/03 03:44:02;;;;;;;;;2.00;1.00;;;;;14.04;100.00;98066.50;2063309;28;46208;-53
2023/11/03 03:45:03;;;;;;;;;0.00;0.00;;;;;14.04;100.00;98076.31;2063129;28;46284;-56
2023/11/03 03:46:03;;;;;;;;;0.00;0.00;;;;;14.03;100.00;98075.47;2056022;28;46289;-55
2023/11/03 03:47:03;;;;;;;;;0.00;0.00;;;;;14.03;100.00;98071.97;2056773;28;46281;-58
2023/11/03 03:48:04;;;;;;;;;0.00;0.00;;;;;14.00;100.00;98073.06;2095550;28;46404;-56
2023/11/03 03:49:05;;;;;;;;;2.00;2.00;;;;;14.00;100.00;98067.72;2095796;28;46632;-54
2023/11/03 03:50:06;;;;;;;;;0.00;0.00;;;;;14.00;100.00;98064.22;2063181;28;47334;-56
2023/11/03 03:51:07;;;;;;;;;2.75;0.75;;;;;14.00;100.00;98070.38;2062353;28;46713;-54
2023/11/03 03:52:07;;;;;;;;;0.00;0.00;;;;;14.01;100.00;98072.09;2062599;28;46569;-58
2023/11/03 03:53:08;;;;;;;;;0.00;0.00;;;;;14.02;100.00;98072.94;2062241;28;46015;-59
2023/11/03 03:54:08;;;;;;;;;1.67;1.00;;;;;14.02;100.00;98065.78;2062707;28;46931;-58
2023/11/03 03:55:08;;;;;;;;;0.33;0.33;;;;;13.99;100.00;98074.03;2062986;28;46413;-56
2023/11/03 03:56:09;;;;;;;;;1.00;1.00;;;;;13.99;100.00;98070.50;2062931;28;46740;-55
2023/11/03 03:57:09;;;;;;;;;0.00;0.00;;;;;13.99;100.00;98074.03;2063063;28;46633;-55
2023/11/03 03:58:09;;;;;;;;;0.00;0.00;;;;;13.98;100.00;98064.34;2062795;28;46867;-59
2023/11/03 03:59:09;;;;;;;;;0.00;0.00;;;;;13.96;100.00;98073.38;2062230;28;46608;-56
2023/11/03 04:00:10;;;;;;;;;0.67;0.67;;;;;13.96;100.00;98073.38;2062499;28;46346;-56
2023/11/03 04:01:11;;;;;;;;;0.00;0.00;;;;;13.93;100.00;98071.81;2054858;28;46585;-57
2023/11/03 04:02:11;;;;;;;;;0.67;0.00;;;;;13.93;100.00;98071.81;2062896;28;46616;-58
2023/11/03 04:03:12;;;;;;;;;2.00;2.00;;;;;13.96;100.00;98065.38;2062975;28;45558;-57
2023/11/03 04:04:12;;;;;;;;;1.00;1.00;;;;;13.95;100.00;98072.53;2062894;28;46812;-56
2023/11/03 04:05:13;;;;;;;;;0.00;0.00;;;;;13.93;100.00;98063.81;2063157;28;46319;-55
2023/11/03 04:06:13;;;;;;;;;0.33;0.00;;;;;13.93;100.00;98070.97;2062726;28;46780;-58
2023/11/03 04:07:13;;;;;;;;;2.00;1.00;;;;;13.92;100.00;98070.13;2063007;28;46557;-50
2023/11/03 04:08:14;;;;;;;;;0.00;0.00;;;;;13.95;100.00;98074.38;2063068;28;46373;-53
2023/11/03 04:09:15;;;;;;;;;2.00;1.67;;;;;13.94;100.00;98075.34;2062876;28;46855;-55
2023/11/03 04:10:15;;;;;;;;;1.33;0.00;;;;;13.95;100.00;98079.69;2063164;28;46556;-57
2023/11/03 04:11:15;;;;;;;;;0.00;0.00;;;;;13.96;100.00;98082.25;2063128;28;46510;-58
2023/11/03 04:12:16;;;;;;;;;1.00;1.00;;;;;13.97;100.00;98088.41;2062795;28;46634;-54
2023/11/03 04:13:16;;;;;;;;;0.00;0.00;;;;;13.94;100.00;98092.19;2062379;28;46366;-58
2023/11/03 04:14:17;;;;;;;;;0.67;0.67;;;;;13.96;100.00;98094.72;2061249;28;46337;-53
2023/11/03 04:15:17;;;;;;;;;2.00;2.00;;;;;13.94;100.00;98092.19;2054856;28;46488;-55
2023/11/03 04:16:17;;;;;;;;;0.33;0.33;;;;;13.94;100.00;98097.50;2059742;28;46946;-59
2023/11/03 04:17:18;;;;;;;;;1.00;1.00;;;;;13.94;100.00;98091.34;2062882;28;47519;-57
2023/11/03 04:18:18;;;;;;;;;0.00;0.00;;;;;13.93;100.00;98093.16;2062548;28;46647;-58
2023/11/03 04:19:18;;;;;;;;;1.00;1.00;;;;;13.94;100.00;98099.31;2062839;28;46661;-56
2023/11/03 04:20:19;;;;;;;;;2.00;1.00;;;;;13.93;100.00;98101.16;2062875;28;46616;-55
2023/11/03 04:21:19;;;;;;;;;0.00;0.00;;;;;13.93;100.00;98092.28;2057607;28;46729;-56
2023/11/03 04:22:20;;;;;;;;;0.00;0.00;;;;;13.92;100.00;98101.28;2054992;28;46848;-59
2023/11/03 04:23:21;;;;;;;;;2.00;0.00;;;;;13.89;100.00;98094.38;2054754;28;46500;-57
2023/11/03 04:24:21;;;;;;;;;0.33;0.33;;;;;13.90;100.00;98093.38;2057997;28;46864;-57
2023/11/03 04:25:21;;;;;;;;;0.33;0.00;;;;;13.90;100.00;98106.72;2062297;28;46566;-56
2023/11/03 04:26:22;;;;;;;;;2.00;0.00;;;;;13.90;100.00;98097.88;2062137;28;46496;-55
2023/11/03 04:27:22;;;;;;;;;1.00;1.00;;;;;13.87;100.00;98101.63;2062842;28;46977;-59
2023/11/03 04:28:22;;;;;;;;;1.00;0.33;;;;;13.87;100.00;98106.13;2062741;28;46555;-56
2023/11/03 04:29:23;;;;;;;;;0.00;0.00;;;;;13.87;100.00;98100.78;2057838;28;46329;-57
2023/11/03 04:30:23;;;;;;;;;0.67;0.67;;;;;13.86;100.00;98099.09;2054941;28;47094;-57
2023/11/03 04:31:24;;;;;;;;;5.00;1.00;;;;;13.86;100.00;98099.09;2054791;28;46951;-53
2023/11/03 04:32:24;;;;;;;;;2.00;0.00;;;;;13.86;100.00;98104.41;2053526;28;46259;-58
2023/11/03 04:33:24;;;;;;;;;0.00;0.00;;;;;13.86;100.00;98099.94;2054187;28;46275;-58
2023/11/03 04:34:24;;;;;;;;;1.00;0.00;;;;;13.83;100.00;98105.47;2054350;28;45707;-57
2023/11/03 04:35:25;;;;;;;;;1.00;0.00;;;;;13.79;100.00;98096.88;2054462;28;45447;-57
2023/11/03 04:36:25;;;;;;;;;0.00;0.00;;;;;13.80;100.00;98100.38;2054329;28;46513;-57
2023/11/03 04:37:26;;;;;;;;;0.00;0.00;;;;;13.78;100.00;98099.66;2059461;28;46274;-55
2023/11/03 04:38:26;;;;;;;;;0.33;0.33;;;;;13.81;100.00;98100.28;2062960;28;46409;-57
2023/11/03 04:39:26;;;;;;;;;0.00;0.00;;;;;13.83;100.00;98108.16;2057917;28;46740;-55
2023/11/03 04:40:26;;;;;;;;;0.00;0.00;;;;;13.82;100.00;98106.44;2062693;28;46127;-58
2023/11/03 04:41:28;;;;;;;;;0.33;0.33;;;;;13.80;100.00;98101.25;2062581;28;46228;-57
2023/11/03 04:42:29;;;;;;;;;1.00;1.00;;;;;13.81;100.00;98105.59;2056926;28;46395;-59